Time;durP1;ratioP1;P1;durP2;ratioP2;P2;SDS_P1;SDS_P2;PMS_P1;PMS_P2;Temp;Humidity;BMP_temperature;BMP_pressure;BME280_temperature;BME280_humidity;BME280_pressure;Samples;Min_cycle;Max_cycle;Signal;HPM_P1;HPM_P2
2023/07/07 00:00:36;;;;;;;10.27;8.07;;;13.80;99.90;;;;;;5000825;28;89251;-35
2023/07/07 00:03:01;;;;;;;7.93;6.57;;;13.80;99.90;;;;;;5022774;27;89949;-34
2023/07/07 00:05:27;;;;;;;9.10;8.15;;;13.80;99.90;;;;;;5029106;27;89691;-36
2023/07/07 00:07:53;;;;;;;9.65;7.60;;;13.80;99.90;;;;;;5018745;27;89996;-35
2023/07/07 00:10:19;;;;;;;10.38;8.50;;;13.80;99.90;;;;;;5019997;27;89906;-37
2023/07/07 00:12:45;;;;;;;10.65;8.77;;;13.80;99.90;;;;;;5018467;27;90009;-35
2023/07/07 00:15:12;;;;;;;12.50;10.13;;;13.80;99.90;;;;;;5019030;27;89881;-40
2023/07/07 00:17:40;;;;;;;9.98;8.63;;;13.80;99.90;;;;;;5000444;28;90045;-34
2023/07/07 00:20:07;;;;;;;10.90;9.13;;;13.80;99.90;;;;;;5001173;28;89220;-35
2023/07/07 00:22:34;;;;;;;13.77;9.23;;;13.80;99.90;;;;;;5018719;27;90484;-34
2023/07/07 00:25:01;;;;;;;12.88;8.63;;;13.80;99.90;;;;;;5018505;27;90614;-39
2023/07/07 00:27:27;;;;;;;9.80;8.35;;;13.80;99.90;;;;;;5031744;27;90915;-34
2023/07/07 00:29:53;;;;;;;11.05;7.65;;;13.80;99.90;;;;;;5019296;27;88313;-32
2023/07/07 00:32:18;;;;;;;10.63;8.00;;;13.70;99.90;;;;;;5017859;27;90079;-38
2023/07/07 00:34:44;;;;;;;10.38;8.32;;;13.80;99.90;;;;;;5031168;27;89789;-39
2023/07/07 00:37:10;;;;;;;8.35;7.60;;;13.70;99.90;;;;;;5019649;27;89351;-36
2023/07/07 00:39:35;;;;;;;9.30;8.40;;;13.70;99.90;;;;;;5018583;27;89502;-35
2023/07/07 00:42:01;;;;;;;8.75;7.88;;;13.70;99.90;;;;;;5023395;27;90030;-35
2023/07/07 00:45:21;;;;;;;9.25;7.72;;;13.70;99.90;;;;;;5026745;27;89939;-32
2023/07/07 00:47:59;;;;;;;12.10;7.50;;;13.70;99.90;;;;;;4948932;28;89373;-32
2023/07/07 00:50:29;;;;;;;8.65;7.50;;;13.70;99.90;;;;;;5008319;27;88882;-33
2023/07/07 00:52:55;;;;;;;8.38;7.22;;;13.60;99.90;;;;;;5022075;27;90223;-40
2023/07/07 00:55:46;;;;;;;8.30;7.40;;;13.60;99.90;;;;;;5029342;27;88902;-33
2023/07/07 00:58:16;;;;;;;10.32;8.82;;;13.60;99.90;;;;;;5017204;27;89766;-36
2023/07/07 01:00:50;;;;;;;10.18;7.72;;;13.50;99.90;;;;;;5000182;28;89345;-38
2023/07/07 01:03:32;;;;;;;8.63;7.72;;;13.60;99.90;;;;;;5016131;27;89771;-37
2023/07/07 01:06:01;;;;;;;9.13;8.23;;;13.60;99.90;;;;;;5018137;27;89548;-33
2023/07/07 01:08:28;;;;;;;10.63;8.77;;;13.60;99.90;;;;;;5018300;27;89638;-36
2023/07/07 01:10:54;;;;;;;9.57;7.20;;;13.50;99.90;;;;;;5018130;27;88099;-33
2023/07/07 01:13:19;;;;;;;8.18;7.38;;;13.60;99.90;;;;;;5018301;27;90549;-33
2023/07/07 01:16:02;;;;;;;8.30;7.45;;;13.50;99.90;;;;;;5017181;27;91103;-33
2023/07/07 01:18:31;;;;;;;7.93;7.18;;;13.50;99.90;;;;;;5017447;27;90297;-40
2023/07/07 01:21:09;;;;;;;10.57;8.80;;;13.50;99.90;;;;;;5018546;27;90311;-34
2023/07/07 01:23:56;;;;;;;;;;;13.50;99.90;;;;;;5019741;27;88931;-39
2023/07/07 01:26:47;;;;;;;8.65;7.53;;;13.40;99.90;;;;;;5012154;27;91297;-34
2023/07/07 01:29:32;;;;;;;12.07;10.35;;;13.40;99.90;;;;;;5034587;27;89656;-34
2023/07/07 01:32:07;;;;;;;11.93;8.82;;;13.40;99.90;;;;;;5020922;27;88092;-33
2023/07/07 01:34:34;;;;;;;10.60;8.85;;;13.40;99.90;;;;;;5031302;27;90479;-36
2023/07/07 01:36:59;;;;;;;10.18;9.18;;;13.40;99.90;;;;;;5023700;27;89612;-35
2023/07/07 01:39:26;;;;;;;12.98;9.70;;;13.40;99.90;;;;;;4986094;28;92622;-35
2023/07/07 01:42:09;;;;;;;11.07;9.98;;;13.40;99.90;;;;;;5020327;27;90147;-38
2023/07/07 01:44:49;;;;;;;14.38;11.23;;;13.40;99.90;;;;;;5020924;27;89769;-33
2023/07/07 01:47:35;;;;;;;14.13;11.43;;;13.40;99.90;;;;;;5009794;27;89332;-33
2023/07/07 01:50:14;;;;;;;11.57;10.45;;;13.30;99.90;;;;;;5020630;27;89736;-35
2023/07/07 01:52:45;;;;;;;12.27;11.07;;;13.30;99.90;;;;;;5020375;27;88369;-36
2023/07/07 01:55:20;;;;;;;14.77;11.48;;;13.30;99.90;;;;;;5019671;27;91827;-33
2023/07/07 01:57:50;;;;;;;13.57;11.45;;;13.30;99.90;;;;;;5021776;27;89524;-33
2023/07/07 02:00:17;;;;;;;16.17;11.77;;;13.30;99.90;;;;;;5009539;27;89577;-34
2023/07/07 02:02:43;;;;;;;19.63;13.30;;;13.30;99.90;;;;;;5020442;27;89415;-41
2023/07/07 02:05:11;;;;;;;17.75;13.63;;;13.20;99.90;;;;;;5019913;27;89608;-34
2023/07/07 02:07:38;;;;;;;15.30;13.63;;;13.30;99.90;;;;;;5001190;27;91159;-34
2023/07/07 02:10:04;;;;;;;16.50;14.70;;;13.30;99.90;;;;;;5014042;28;90445;-35
2023/07/07 02:12:29;;;;;;;16.58;14.55;;;13.30;99.90;;;;;;5021420;27;88915;-34
2023/07/07 02:14:55;;;;;;;22.25;14.35;;;13.20;99.90;;;;;;5013898;28;90324;-32
2023/07/07 02:17:20;;;;;;;18.48;14.98;;;13.30;99.90;;;;;;5032808;27;89920;-38
2023/07/07 02:19:46;;;;;;;18.83;16.30;;;13.30;99.90;;;;;;5020348;27;90058;-37
2023/07/07 02:22:12;;;;;;;16.38;14.70;;;13.30;99.90;;;;;;5032045;27;89131;-40
2023/07/07 02:24:37;;;;;;;17.48;15.02;;;13.30;99.90;;;;;;5020442;27;89066;-36
2023/07/07 02:27:04;;;;;;;17.17;15.43;;;13.30;99.90;;;;;;5019207;27;89490;-37
2023/07/07 02:29:29;;;;;;;13.85;12.27;;;13.30;99.90;;;;;;5019995;27;89468;-34
2023/07/07 02:31:55;;;;;;;19.85;14.43;;;13.20;99.90;;;;;;5019252;27;89551;-34
2023/07/07 02:34:21;;;;;;;17.38;13.75;;;13.30;99.90;;;;;;5031551;27;90281;-33
2023/07/07 02:36:46;;;;;;;15.65;14.05;;;13.30;99.90;;;;;;5031707;27;89686;-35
2023/07/07 02:39:12;;;;;;;22.63;14.65;;;13.20;99.90;;;;;;5019697;27;89469;-36
2023/07/07 02:41:38;;;;;;;16.17;13.80;;;13.20;99.90;;;;;;5020173;27;89495;-33
2023/07/07 02:44:03;;;;;;;17.90;14.55;;;13.20;99.90;;;;;;5020059;27;90856;-33
2023/07/07 02:46:29;;;;;;;18.52;14.35;;;13.20;99.90;;;;;;5020774;27;89026;-37
2023/07/07 02:48:55;;;;;;;22.52;15.90;;;13.20;99.90;;;;;;5031437;27;89517;-37
2023/07/07 02:51:21;;;;;;;19.85;15.65;;;13.20;99.90;;;;;;5031845;27;89029;-36
2023/07/07 02:53:46;;;;;;;19.30;14.43;;;13.20;99.90;;;;;;5027221;27;91688;-34
2023/07/07 02:56:12;;;;;;;22.30;15.60;;;13.20;99.90;;;;;;5025671;27;90437;-37
2023/07/07 02:58:37;;;;;;;22.08;15.20;;;13.20;99.90;;;;;;5008473;27;90565;-37
2023/07/07 03:01:11;;;;;;;25.50;16.17;;;13.20;99.90;;;;;;5024865;27;88859;-37
2023/07/07 03:03:38;;;;;;;21.92;15.30;;;13.30;99.90;;;;;;5005570;27;90337;-36
2023/07/07 03:06:19;;;;;;;17.42;15.25;;;13.30;99.90;;;;;;5032264;27;89485;-37
2023/07/07 03:08:45;;;;;;;19.98;15.65;;;13.30;99.90;;;;;;5018504;27;89526;-33
2023/07/07 03:11:13;;;;;;;17.58;14.68;;;13.30;99.90;;;;;;5038255;27;90368;-33
2023/07/07 03:13:39;;;;;;;19.38;16.48;;;13.30;99.90;;;;;;5039506;27;90183;-40
2023/07/07 03:16:10;;;;;;;17.80;14.93;;;13.30;99.90;;;;;;5037495;27;89095;-36
2023/07/07 03:18:35;;;;;;;17.15;15.18;;;13.30;99.90;;;;;;5029704;27;89956;-37
2023/07/07 03:21:01;;;;;;;18.52;14.98;;;13.30;99.90;;;;;;5031854;27;90080;-37
2023/07/07 03:23:27;;;;;;;18.58;13.93;;;13.30;99.90;;;;;;5021429;27;89557;-33
2023/07/07 03:25:53;;;;;;;22.63;15.30;;;13.30;99.90;;;;;;5022528;27;90181;-35
2023/07/07 03:28:18;;;;;;;20.40;14.63;;;13.30;99.90;;;;;;5021061;27;89430;-35
2023/07/07 03:30:44;;;;;;;16.25;14.55;;;13.30;99.90;;;;;;5035405;27;89767;-38
2023/07/07 03:33:12;;;;;;;20.98;14.23;;;13.30;99.90;;;;;;5038499;27;89167;-34
2023/07/07 03:35:38;;;;;;;18.33;14.77;;;13.30;99.90;;;;;;5024896;27;89610;-34
2023/07/07 03:38:05;;;;;;;15.90;14.25;;;13.30;99.90;;;;;;5022183;27;89148;-39
2023/07/07 03:40:31;;;;;;;19.38;14.38;;;13.40;99.90;;;;;;5023148;27;89259;-33
2023/07/07 03:42:57;;;;;;;15.65;13.82;;;13.40;99.90;;;;;;5020884;27;91101;-35
2023/07/07 03:45:23;;;;;;;16.77;15.00;;;13.40;99.90;;;;;;5022508;27;90188;-39
2023/07/07 03:47:48;;;;;;;20.48;15.15;;;13.40;99.90;;;;;;5020167;27;90910;-37
2023/07/07 03:50:14;;;;;;;16.73;14.93;;;13.40;99.90;;;;;;5023142;27;87611;-34
2023/07/07 03:52:39;;;;;;;18.55;15.10;;;13.40;99.90;;;;;;5021085;27;92064;-37
2023/07/07 03:55:05;;;;;;;19.92;14.25;;;13.50;99.90;;;;;;5031937;27;89713;-34
2023/07/07 03:57:31;;;;;;;19.60;16.00;;;13.50;99.90;;;;;;5030661;27;88932;-33
2023/07/07 03:59:57;;;;;;;19.95;14.70;;;13.60;99.90;;;;;;5032060;27;90162;-35
2023/07/07 04:02:22;;;;;;;18.58;15.57;;;13.60;99.90;;;;;;5015606;27;90189;-32
2023/07/07 04:04:48;;;;;;;16.73;14.82;;;13.60;99.90;;;;;;5033797;27;90055;-32
2023/07/07 04:07:14;;;;;;;18.38;15.63;;;13.60;99.90;;;;;;5037894;27;89646;-35
2023/07/07 04:09:40;;;;;;;19.77;15.18;;;13.70;99.90;;;;;;5035000;27;90665;-33
2023/07/07 04:12:09;;;;;;;14.77;13.32;;;13.70;99.90;;;;;;5027015;27;90696;-36
2023/07/07 04:14:35;;;;;;;18.45;15.13;;;13.70;99.90;;;;;;5016924;27;89795;-35
2023/07/07 04:17:01;;;;;;;18.05;14.35;;;13.70;99.90;;;;;;5019466;27;89508;-37
2023/07/07 04:19:26;;;;;;;21.20;15.80;;;13.70;99.90;;;;;;4986076;27;88541;-37
2023/07/07 04:21:52;;;;;;;15.32;13.77;;;13.70;99.90;;;;;;5019681;27;90390;-36
2023/07/07 04:24:20;;;;;;;17.75;13.77;;;13.70;99.90;;;;;;5031241;27;89644;-32
2023/07/07 04:26:47;;;;;;;;;;;13.70;99.90;;;;;;5020059;27;89624;-34
2023/07/07 04:29:12;;;;;;;15.35;13.20;;;13.80;99.90;;;;;;5025916;27;89102;-39
2023/07/07 04:31:38;;;;;;;19.08;13.77;;;13.80;99.90;;;;;;5019853;27;89621;-33
2023/07/07 04:34:05;;;;;;;20.58;14.10;;;13.90;99.90;;;;;;5035759;27;90420;-33
2023/07/07 04:36:30;;;;;;;16.13;14.38;;;14.00;99.90;;;;;;5028934;27;90882;-33
2023/07/07 04:38:56;;;;;;;20.13;15.43;;;14.10;99.90;;;;;;5035392;27;89059;-33
2023/07/07 04:41:24;;;;;;;17.90;14.98;;;14.20;99.90;;;;;;5070810;22;90633;-42
2023/07/07 04:43:51;;;;;;;;;;;14.30;99.90;;;;;;5020018;27;88924;-33
2023/07/07 04:46:32;;;;;;;14.77;13.15;;;14.50;99.90;;;;;;5032315;27;90244;-34
2023/07/07 04:48:58;;;;;;;21.40;15.48;;;14.80;99.90;;;;;;5020269;27;89463;-38
2023/07/07 04:51:24;;;;;;;17.75;14.60;;;15.00;99.90;;;;;;5029647;27;90332;-38
2023/07/07 04:53:50;;;;;;;15.40;13.35;;;15.20;99.90;;;;;;5037634;27;90245;-34
2023/07/07 04:56:18;;;;;;;14.52;12.75;;;15.50;99.90;;;;;;5036596;27;89676;-34
2023/07/07 04:58:46;;;;;;;;;;;15.70;99.90;;;;;;5019955;27;88466;-35
2023/07/07 05:01:18;;;;;;;16.20;12.98;;;15.90;99.90;;;;;;5036601;27;90088;-33
2023/07/07 05:03:44;;;;;;;16.23;14.00;;;16.20;99.90;;;;;;5034836;27;89289;-33
2023/07/07 05:06:11;;;;;;;17.88;13.10;;;16.50;99.90;;;;;;5021748;27;89730;-33
2023/07/07 05:08:39;;;;;;;14.80;13.10;;;16.70;99.90;;;;;;5030811;27;88275;-34
2023/07/07 05:11:06;;;;;;;18.70;13.05;;;16.90;99.90;;;;;;5039417;27;89468;-32
2023/07/07 05:13:33;;;;;;;14.90;12.35;;;17.00;99.90;;;;;;5030160;27;89745;-37
2023/07/07 05:16:04;;;;;;;15.38;11.18;;;17.30;99.90;;;;;;5029580;27;89375;-34
2023/07/07 05:18:30;;;;;;;13.43;12.02;;;17.50;99.90;;;;;;5023045;27;90352;-35
2023/07/07 05:20:56;;;;;;;20.13;13.02;;;17.70;99.90;;;;;;5022292;27;90742;-38
2023/07/07 05:23:22;;;;;;;14.02;12.43;;;17.90;99.90;;;;;;5039682;27;92017;-34
2023/07/07 05:25:47;;;;;;;12.18;10.98;;;18.10;99.90;;;;;;5035577;27;89544;-35
2023/07/07 05:28:13;;;;;;;17.38;11.60;;;18.30;99.90;;;;;;5031150;27;89300;-34
2023/07/07 05:30:39;;;;;;;18.30;11.27;;;18.40;99.90;;;;;;5035528;27;91031;-33
2023/07/07 05:33:05;;;;;;;14.15;10.55;;;18.70;99.90;;;;;;5034517;27;89841;-36
2023/07/07 05:35:31;;;;;;;15.75;9.95;;;18.80;99.90;;;;;;5037227;27;89287;-34
2023/07/07 05:37:56;;;;;;;11.38;9.85;;;19.00;99.90;;;;;;5038375;27;90109;-34
2023/07/07 05:40:22;;;;;;;11.30;10.23;;;19.10;99.90;;;;;;5038744;27;90641;-33
2023/07/07 05:42:48;;;;;;;12.07;9.27;;;19.50;99.90;;;;;;5038108;27;89924;-36
2023/07/07 05:45:13;;;;;;;11.02;8.70;;;19.50;99.90;;;;;;5031068;27;90152;-33
2023/07/07 05:47:39;;;;;;;14.93;10.10;;;19.70;99.90;;;;;;5038105;27;89912;-33
2023/07/07 05:50:05;;;;;;;13.52;9.73;;;19.90;99.90;;;;;;5029718;27;90066;-34
2023/07/07 05:52:31;;;;;;;12.18;9.23;;;20.00;99.90;;;;;;5034742;27;89782;-34
2023/07/07 05:54:57;;;;;;;11.82;8.55;;;20.20;99.90;;;;;;5020753;27;89892;-35
2023/07/07 05:57:23;;;;;;;16.10;8.55;;;20.40;99.90;;;;;;5038720;27;88647;-33
2023/07/07 05:59:49;;;;;;;8.82;8.00;;;20.60;99.90;;;;;;5038447;27;90855;-37
2023/07/07 06:02:15;;;;;;;11.52;8.32;;;20.70;99.90;;;;;;5038461;27;90007;-35
2023/07/07 06:04:41;;;;;;;9.52;8.43;;;20.90;99.90;;;;;;5038732;27;90580;-36
2023/07/07 06:07:07;;;;;;;11.90;8.45;;;21.20;99.90;;;;;;5038890;27;88020;-36
2023/07/07 06:09:32;;;;;;;8.73;7.93;;;21.40;99.90;;;;;;5037358;27;91261;-36
2023/07/07 06:11:59;;;;;;;9.10;8.05;;;21.60;99.90;;;;;;5038583;27;90001;-34
2023/07/07 06:14:25;;;;;;;7.57;6.78;;;21.70;99.90;;;;;;5038029;27;91477;-38
2023/07/07 06:16:50;;;;;;;7.60;6.85;;;21.90;99.90;;;;;;5039579;27;89721;-34
2023/07/07 06:19:16;;;;;;;9.52;7.20;;;22.00;99.90;;;;;;5038427;27;90086;-33
2023/07/07 06:21:42;;;;;;;8.68;7.75;;;22.10;99.90;;;;;;5039185;27;88993;-34
2023/07/07 06:24:07;;;;;;;8.70;7.25;;;22.30;99.90;;;;;;5038130;27;88907;-38
2023/07/07 06:26:33;;;;;;;8.77;7.28;;;22.50;99.90;;;;;;5039248;27;88421;-34
2023/07/07 06:28:58;;;;;;;8.70;7.90;;;22.30;99.90;;;;;;5038534;27;90770;-33
2023/07/07 06:31:24;;;;;;;10.90;7.32;;;22.50;99.90;;;;;;5038814;27;89554;-38
2023/07/07 06:33:50;;;;;;;10.68;8.30;;;22.80;99.90;;;;;;5038440;27;88405;-32
2023/07/07 06:36:15;;;;;;;12.57;7.65;;;22.80;99.90;;;;;;5035655;27;90338;-33
2023/07/07 06:38:41;;;;;;;11.38;7.15;;;23.00;99.90;;;;;;5036534;27;90747;-35
2023/07/07 06:41:11;;;;;;;7.63;6.82;;;23.10;99.90;;;;;;5037277;27;90277;-32
2023/07/07 06:43:37;;;;;;;11.55;8.07;;;23.40;99.90;;;;;;5037639;27;89420;-35
2023/07/07 06:46:02;;;;;;;11.70;7.53;;;23.50;99.90;;;;;;5038406;27;89360;-37
2023/07/07 06:48:28;;;;;;;7.43;6.72;;;23.50;99.90;;;;;;5037238;27;91734;-33
2023/07/07 06:50:54;;;;;;;8.93;7.10;;;23.40;99.90;;;;;;5037945;27;89697;-33
2023/07/07 06:53:19;;;;;;;8.93;6.65;;;23.80;99.90;;;;;;5017764;27;90383;-38
2023/07/07 06:55:45;;;;;;;8.88;7.18;;;24.00;99.90;;;;;;5036819;27;87715;-35
2023/07/07 06:58:12;;;;;;;7.07;5.65;;;24.30;99.90;;;;;;5024158;27;90478;-33
2023/07/07 07:00:39;;;;;;;7.40;5.30;;;24.30;99.90;;;;;;5036404;27;90261;-34
2023/07/07 07:03:05;;;;;;;9.17;5.77;;;24.40;99.90;;;;;;5036352;27;90404;-35
2023/07/07 07:05:31;;;;;;;7.13;5.68;;;24.20;99.90;;;;;;5036890;27;88772;-35
2023/07/07 07:07:56;;;;;;;10.02;6.00;;;24.30;99.90;;;;;;5036916;27;90715;-38
2023/07/07 07:10:22;;;;;;;8.05;5.47;;;24.20;98.90;;;;;;5037556;27;89879;-39
2023/07/07 07:12:48;;;;;;;6.25;5.65;;;24.70;98.20;;;;;;5037472;27;89504;-34
2023/07/07 07:15:14;;;;;;;5.88;4.50;;;24.90;96.90;;;;;;5037335;27;89034;-33
2023/07/07 07:17:40;;;;;;;5.35;4.82;;;25.20;94.00;;;;;;5019736;27;91881;-35
2023/07/07 07:20:07;;;;;;;9.48;5.13;;;25.50;92.00;;;;;;5037887;27;89173;-37
2023/07/07 07:22:33;;;;;;;14.73;6.20;;;25.50;93.20;;;;;;5035987;27;89481;-34
2023/07/07 07:24:59;;;;;;;4.95;4.40;;;25.60;84.20;;;;;;5037837;27;90256;-35
2023/07/07 07:27:24;;;;;;;10.73;4.57;;;25.40;80.90;;;;;;5018781;27;92318;-36
2023/07/07 07:29:51;;;;;;;7.35;4.40;;;25.60;83.50;;;;;;5036831;27;89594;-34
2023/07/07 07:32:17;;;;;;;4.72;4.35;;;25.60;75.10;;;;;;5036934;27;90480;-38
2023/07/07 07:34:43;;;;;;;5.55;4.35;;;25.60;79.90;;;;;;5037687;27;89661;-35
2023/07/07 07:37:09;;;;;;;5.88;4.07;;;25.80;78.10;;;;;;5036451;27;91302;-40
2023/07/07 07:39:35;;;;;;;7.55;4.68;;;26.10;81.40;;;;;;5037129;27;89780;-35
2023/07/07 07:42:02;;;;;;;5.43;3.70;;;26.00;77.10;;;;;;5036624;27;88863;-35
2023/07/07 07:44:28;;;;;;;5.20;4.18;;;26.30;77.80;;;;;;5038756;27;90495;-34
2023/07/07 07:46:56;;;;;;;5.32;4.60;;;26.40;74.90;;;;;;5036785;27;91067;-33
2023/07/07 07:49:23;;;;;;;5.47;3.42;;;26.50;71.90;;;;;;5036029;27;90206;-36
2023/07/07 07:51:49;;;;;;;4.53;3.90;;;26.80;72.60;;;;;;5015255;27;90842;-37
2023/07/07 07:54:18;;;;;;;11.57;4.60;;;26.40;72.90;;;;;;5037620;27;89098;-34
2023/07/07 07:56:46;;;;;;;4.43;3.88;;;26.70;72.40;;;;;;5037184;27;91963;-32
2023/07/07 07:59:12;;;;;;;7.13;3.97;;;26.70;71.30;;;;;;5036882;27;89748;-33
2023/07/07 08:01:37;;;;;;;5.00;3.42;;;26.90;71.50;;;;;;5036226;27;89562;-38
2023/07/07 08:04:04;;;;;;;7.28;3.53;;;26.90;72.00;;;;;;5038247;27;88880;-34
2023/07/07 08:06:30;;;;;;;4.90;3.55;;;27.00;70.70;;;;;;5036216;27;90798;-34
2023/07/07 08:08:57;;;;;;;3.53;3.03;;;27.10;67.10;;;;;;5037601;27;88563;-36
2023/07/07 08:11:41;;;;;;;8.88;2.67;;;26.90;66.40;;;;;;5036112;27;90557;-33
2023/07/07 08:14:18;;;;;;;4.07;3.15;;;26.80;66.20;;;;;;5035979;27;90195;-35
2023/07/07 08:16:46;;;;;;;2.97;2.67;;;26.90;63.10;;;;;;5037283;27;90282;-36
2023/07/07 08:19:12;;;;;;;3.22;2.90;;;26.70;64.40;;;;;;5036503;27;89735;-36
2023/07/07 08:21:38;;;;;;;5.95;3.00;;;26.70;63.30;;;;;;5036399;27;89973;-35
2023/07/07 08:24:05;;;;;;;3.38;2.72;;;26.60;64.40;;;;;;5037174;27;89052;-37
2023/07/07 08:26:32;;;;;;;3.13;2.83;;;26.90;64.40;;;;;;5037141;27;90854;-36
2023/07/07 08:28:57;;;;;;;5.35;2.67;;;26.90;62.70;;;;;;5035890;27;90348;-38
2023/07/07 08:31:23;;;;;;;4.78;3.13;;;26.80;62.00;;;;;;5036253;27;89561;-36
2023/07/07 08:33:50;;;;;;;4.07;2.95;;;27.00;61.00;;;;;;5037181;27;89287;-34
2023/07/07 08:36:15;;;;;;;3.00;2.58;;;26.80;62.00;;;;;;5036356;27;90221;-36
2023/07/07 08:38:41;;;;;;;4.18;2.53;;;27.10;63.20;;;;;;5036461;27;91273;-35
2023/07/07 08:41:07;;;;;;;3.78;3.08;;;27.20;62.80;;;;;;5017251;27;90743;-32
2023/07/07 08:43:33;;;;;;;4.07;2.50;;;27.20;59.70;;;;;;5037122;27;89554;-36
2023/07/07 08:46:08;;;;;;;3.63;3.00;;;27.20;61.40;;;;;;5037292;27;91614;-34
2023/07/07 08:48:53;;;;;;;3.05;2.83;;;27.60;61.90;;;;;;5036103;27;89821;-34
2023/07/07 08:51:23;;;;;;;4.03;2.50;;;27.50;60.90;;;;;;5036014;27;88852;-33
2023/07/07 08:54:06;;;;;;;2.72;2.50;;;27.90;60.30;;;;;;5018362;27;87930;-35
2023/07/07 08:57:01;;;;;;;2.60;2.38;;;28.00;61.60;;;;;;5036092;27;89805;-38
2023/07/07 08:59:44;;;;;;;3.30;2.58;;;27.80;59.30;;;;;;5035579;27;90367;-35
2023/07/07 09:02:15;;;;;;;5.18;2.65;;;28.00;59.20;;;;;;5036190;27;91016;-34
2023/07/07 09:04:52;;;;;;;3.88;2.72;;;28.00;58.30;;;;;;5035868;27;89637;-35
2023/07/07 09:07:17;;;;;;;4.93;2.60;;;27.90;59.40;;;;;;5036477;27;90148;-34
2023/07/07 09:09:52;;;;;;;3.83;2.67;;;27.80;56.90;;;;;;5017703;27;89341;-38
2023/07/07 09:12:41;;;;;;;5.22;2.83;;;28.00;58.90;;;;;;5035668;27;89561;-34
2023/07/07 09:15:28;;;;;;;3.63;2.60;;;28.10;58.90;;;;;;5007599;27;90675;-35
2023/07/07 09:18:16;;;;;;;2.63;2.40;;;28.20;58.30;;;;;;5035571;27;90534;-35
2023/07/07 09:20:45;;;;;;;6.90;3.30;;;28.30;56.80;;;;;;5036091;27;90214;-36
2023/07/07 09:23:21;;;;;;;3.65;2.90;;;28.00;57.50;;;;;;5035470;27;89506;-33
2023/07/07 09:26:00;;;;;;;2.75;2.55;;;28.10;57.70;;;;;;5036144;27;88149;-34
2023/07/07 09:28:31;;;;;;;5.82;3.13;;;28.30;58.70;;;;;;5035087;27;90107;-37
2023/07/07 09:31:18;;;;;;;3.00;2.70;;;28.10;57.90;;;;;;5022271;27;90935;-34
2023/07/07 09:33:44;;;;;;;4.15;2.95;;;27.90;58.10;;;;;;5034978;27;90275;-36
2023/07/07 09:36:15;;;;;;;2.40;2.20;;;27.70;56.50;;;;;;5035542;27;87969;-36
2023/07/07 09:38:46;;;;;;;6.28;3.35;;;27.50;57.20;;;;;;5017205;27;89929;-36
2023/07/07 09:41:31;;;;;;;6.55;2.70;;;27.30;56.70;;;;;;5034971;27;89780;-37
2023/07/07 09:44:08;;;;;;;3.40;3.08;;;27.00;55.90;;;;;;5005842;27;89606;-38
2023/07/07 09:46:49;;;;;;;;;;;27.00;58.50;;;;;;5039665;27;88828;-35
2023/07/07 09:49:31;;;;;;;4.28;2.75;;;27.30;58.50;;;;;;5040432;27;90190;-35
2023/07/07 09:52:33;;;;;;;8.57;3.67;;;27.40;59.20;;;;;;5027195;27;89982;-35
2023/07/07 09:55:00;;;;;;;4.10;3.38;;;27.80;60.60;;;;;;5022065;27;90020;-35
2023/07/07 09:57:32;;;;;;;5.13;3.05;;;27.90;59.00;;;;;;5039327;27;90664;-36
2023/07/07 10:00:01;;;;;;;4.93;3.40;;;27.90;59.90;;;;;;5038405;27;89699;-34
2023/07/07 10:02:27;;;;;;;3.97;2.85;;;28.00;58.80;;;;;;4999538;27;90925;-37
2023/07/07 10:05:06;;;;;;;5.80;3.10;;;27.90;57.10;;;;;;5022767;27;89506;-37
2023/07/07 10:07:37;;;;;;;3.92;2.13;;;27.30;57.80;;;;;;5030004;27;90318;-34
2023/07/07 10:10:04;;;;;;;5.30;3.13;;;27.00;55.10;;;;;;5032497;27;90037;-34
2023/07/07 10:12:30;;;;;;;6.82;3.13;;;26.90;57.10;;;;;;5021125;27;90103;-36
2023/07/07 10:14:56;;;;;;;4.97;2.35;;;27.20;58.50;;;;;;5025843;27;89464;-37
2023/07/07 10:17:53;;;;;;;9.55;2.75;;;27.10;59.40;;;;;;5035361;27;90010;-34
2023/07/07 10:20:18;;;;;;;3.37;3.07;;;27.10;58.60;;;;;;5031043;27;90992;-36
2023/07/07 10:22:44;;;;;;;4.78;2.80;;;26.90;57.20;;;;;;5016283;27;90405;-35
2023/07/07 10:25:14;;;;;;;4.18;2.65;;;27.00;58.80;;;;;;5034526;27;90732;-35
2023/07/07 10:27:51;;;;;;;3.72;2.92;;;27.10;59.50;;;;;;5034307;27;88989;-34
2023/07/07 10:30:17;;;;;;;4.82;3.30;;;26.80;57.40;;;;;;5025952;27;91547;-39
2023/07/07 10:32:43;;;;;;;7.20;3.25;;;26.50;58.10;;;;;;5025313;27;88344;-35
2023/07/07 10:35:15;;;;;;;3.95;3.13;;;26.70;61.00;;;;;;5034841;27;89696;-35
2023/07/07 10:37:41;;;;;;;3.40;3.00;;;26.70;60.70;;;;;;5019031;27;88795;-35
2023/07/07 10:40:14;;;;;;;7.28;3.22;;;26.70;59.70;;;;;;5029353;27;90352;-36
2023/07/07 10:42:40;;;;;;;3.80;3.13;;;26.70;59.10;;;;;;5025475;27;90073;-38
2023/07/07 10:45:07;;;;;;;3.50;2.85;;;26.60;57.60;;;;;;5033786;27;89335;-39
2023/07/07 10:47:37;;;;;;;4.72;3.28;;;26.50;59.00;;;;;;5036226;27;89787;-36
2023/07/07 10:50:10;;;;;;;3.35;2.88;;;26.80;59.80;;;;;;5024375;27;90157;-33
2023/07/07 10:53:27;;;;;;;6.18;3.40;;;26.70;60.00;;;;;;5023722;27;89267;-40
2023/07/07 10:56:24;;;;;;;3.30;2.92;;;26.30;60.30;;;;;;5001845;27;90098;-34
2023/07/07 10:59:04;;;;;;;4.97;4.30;;;26.30;61.20;;;;;;5026943;27;89792;-38
2023/07/07 11:01:49;;;;;;;5.15;3.20;;;26.50;60.60;;;;;;5018858;27;91121;-36
2023/07/07 11:04:38;;;;;;;4.43;3.20;;;26.60;60.20;;;;;;5037062;27;89643;-35
2023/07/07 11:07:23;;;;;;;2.97;2.78;;;26.40;60.50;;;;;;5033738;27;89490;-36
2023/07/07 11:10:02;;;;;;;4.63;3.20;;;26.50;59.90;;;;;;5038193;27;90015;-37
2023/07/07 11:12:34;;;;;;;3.90;3.50;;;26.20;58.00;;;;;;5037981;27;91323;-34
2023/07/07 11:15:21;;;;;;;3.67;3.05;;;26.40;58.70;;;;;;5037904;27;90450;-37
2023/07/07 11:17:53;;;;;;;2.97;2.67;;;26.30;56.70;;;;;;5038079;27;90528;-38
2023/07/07 11:20:46;;;;;;;3.20;2.22;;;26.10;56.30;;;;;;5037965;27;89547;-34
2023/07/07 11:23:20;;;;;;;2.72;2.38;;;26.30;55.50;;;;;;5008991;27;89970;-38
2023/07/07 11:26:07;;;;;;;4.88;3.33;;;26.40;55.10;;;;;;5038791;27;89806;-33
2023/07/07 11:28:47;;;;;;;5.07;3.25;;;26.10;54.40;;;;;;5037017;27;88686;-35
2023/07/07 11:31:24;;;;;;;4.10;3.05;;;26.20;57.70;;;;;;5038034;27;88424;-37
2023/07/07 11:34:05;;;;;;;4.30;3.15;;;26.10;59.00;;;;;;5037596;27;91142;-36
2023/07/07 11:36:33;;;;;;;3.88;3.45;;;26.20;58.20;;;;;;5037761;27;90235;-33
2023/07/07 11:39:34;;;;;;;3.30;3.00;;;26.00;55.30;;;;;;5025654;27;89820;-34
2023/07/07 11:42:06;;;;;;;3.75;2.65;;;26.10;55.30;;;;;;5036657;27;90467;-36
2023/07/07 11:45:04;;;;;;;3.97;3.15;;;25.70;54.40;;;;;;5036698;27;90503;-36
2023/07/07 11:47:38;;;;;;;4.22;2.72;;;25.70;55.20;;;;;;5028119;27;89894;-36
2023/07/07 11:50:32;;;;;;;3.53;2.88;;;26.00;55.20;;;;;;5037184;27;89254;-37
2023/07/07 11:53:16;;;;;;;4.13;2.60;;;25.90;54.70;;;;;;5036788;27;88816;-37
2023/07/07 11:56:03;;;;;;;5.28;3.03;;;25.90;51.10;;;;;;5026611;27;89940;-38
2023/07/07 11:58:41;;;;;;;3.63;2.55;;;25.80;50.40;;;;;;5036813;27;88636;-36
2023/07/07 12:01:08;;;;;;;3.28;2.88;;;25.80;52.70;;;;;;5037506;27;89932;-38
2023/07/07 12:04:14;;;;;;;4.43;2.90;;;25.70;52.00;;;;;;5037103;27;88423;-37
2023/07/07 12:07:00;;;;;;;3.17;2.87;;;25.70;54.70;;;;;;5012025;27;89944;-38
2023/07/07 12:09:45;;;;;;;4.40;2.72;;;25.70;54.80;;;;;;5035119;27;90989;-37
2023/07/07 12:12:27;;;;;;;3.03;2.75;;;25.80;55.10;;;;;;5037104;27;90448;-36
2023/07/07 12:15:02;;;;;;;2.92;2.63;;;25.90;54.70;;;;;;5036322;27;89278;-33
2023/07/07 12:17:33;;;;;;;3.83;2.97;;;25.90;54.50;;;;;;5036730;27;89818;-34
2023/07/07 12:20:13;;;;;;;4.53;2.65;;;25.80;53.20;;;;;;5037793;27;90274;-34
2023/07/07 12:22:43;;;;;;;3.25;2.42;;;25.70;52.20;;;;;;5036641;27;89518;-37
2023/07/07 12:25:23;;;;;;;2.42;2.13;;;25.70;50.20;;;;;;5036709;27;88281;-39
2023/07/07 12:27:51;;;;;;;3.22;2.67;;;25.80;50.80;;;;;;5025227;27;90152;-40
2023/07/07 12:30:30;;;;;;;3.28;2.63;;;25.40;50.60;;;;;;5036170;27;90147;-38
2023/07/07 12:32:57;;;;;;;3.55;2.97;;;25.60;50.50;;;;;;5037157;27;90074;-37
2023/07/07 12:35:36;;;;;;;3.75;2.75;;;25.50;52.10;;;;;;5035639;27;89150;-37
2023/07/07 12:38:25;;;;;;;3.00;2.70;;;25.60;54.30;;;;;;5036631;27;89142;-36
2023/07/07 12:40:55;;;;;;;3.38;2.65;;;25.90;53.40;;;;;;5026875;27;89495;-33
2023/07/07 12:43:27;;;;;;;3.38;3.08;;;26.00;53.30;;;;;;5018258;27;90104;-36
2023/07/07 12:45:55;;;;;;;3.90;2.80;;;25.70;53.10;;;;;;5036739;27;88636;-37
2023/07/07 12:48:25;;;;;;;3.63;2.60;;;25.80;53.90;;;;;;5035857;27;90339;-35
2023/07/07 12:50:53;;;;;;;2.90;2.28;;;25.70;51.80;;;;;;5036638;27;89300;-34
2023/07/07 12:53:31;;;;;;;3.30;3.00;;;25.60;53.90;;;;;;5036666;27;90188;-34
2023/07/07 12:56:20;;;;;;;6.15;3.15;;;25.70;54.10;;;;;;5037668;27;88666;-35
2023/07/07 12:58:54;;;;;;;4.68;3.40;;;25.80;53.90;;;;;;5025128;27;89892;-35